sensor_id;sensor_type;location;lat;lon;timestamp;pressure;altitude;pressure_sealevel;temperature;humidity
8320;BME280;4197;42.130;24.746;2023-04-08T00:01:09;99730.31;;;7.39;68.65
8320;BME280;4197;42.130;24.746;2023-04-08T00:03:40;99732.41;;;7.33;69.02
8320;BME280;4197;42.130;24.746;2023-04-08T00:06:08;99734.31;;;7.33;69.34
8320;BME280;4197;42.130;24.746;2023-04-08T00:08:37;99738.56;;;7.34;69.55
8320;BME280;4197;42.130;24.746;2023-04-08T00:11:05;99734.97;;;7.30;69.52
8320;BME280;4197;42.130;24.746;2023-04-08T00:13:35;99729.75;;;7.25;69.44
8320;BME280;4197;42.130;24.746;2023-04-08T00:16:03;99726.47;;;7.10;69.14
8320;BME280;4197;42.130;24.746;2023-04-08T00:18:31;99732.97;;;7.18;69.53
8320;BME280;4197;42.130;24.746;2023-04-08T00:21:00;99739.06;;;7.36;69.58
8320;BME280;4197;42.130;24.746;2023-04-08T00:23:28;99735.97;;;7.17;70.70
8320;BME280;4197;42.130;24.746;2023-04-08T00:25:56;99747.06;;;7.24;71.37
8320;BME280;4197;42.130;24.746;2023-04-08T00:28:24;99747.97;;;7.28;70.92
8320;BME280;4197;42.130;24.746;2023-04-08T00:30:54;99749.63;;;7.11;71.63
8320;BME280;4197;42.130;24.746;2023-04-08T00:33:23;99741.59;;;6.94;72.45
8320;BME280;4197;42.130;24.746;2023-04-08T00:35:51;99743.13;;;7.04;72.45
8320;BME280;4197;42.130;24.746;2023-04-08T00:38:20;99742.16;;;7.17;71.61
8320;BME280;4197;42.130;24.746;2023-04-08T00:40:48;99741.78;;;7.27;71.79
8320;BME280;4197;42.130;24.746;2023-04-08T00:43:16;99740.34;;;7.30;71.67
8320;BME280;4197;42.130;24.746;2023-04-08T00:45:46;99734.66;;;7.23;72.33
8320;BME280;4197;42.130;24.746;2023-04-08T00:48:16;99736.25;;;7.24;73.06
8320;BME280;4197;42.130;24.746;2023-04-08T00:50:44;99743.22;;;7.25;73.58
8320;BME280;4197;42.130;24.746;2023-04-08T00:53:14;99749.13;;;7.18;74.68
8320;BME280;4197;42.130;24.746;2023-04-08T00:55:44;99760.59;;;7.06;75.89
8320;BME280;4197;42.130;24.746;2023-04-08T00:58:13;99757.09;;;7.06;76.90
8320;BME280;4197;42.130;24.746;2023-04-08T01:00:45;99755.03;;;7.11;77.56
8320;BME280;4197;42.130;24.746;2023-04-08T01:03:25;99751.66;;;7.14;77.93
8320;BME280;4197;42.130;24.746;2023-04-08T01:05:59;99760.72;;;7.19;79.07
8320;BME280;4197;42.130;24.746;2023-04-08T01:08:30;99771.63;;;7.22;80.68
8320;BME280;4197;42.130;24.746;2023-04-08T01:11:01;99769.56;;;7.28;81.80
8320;BME280;4197;42.130;24.746;2023-04-08T01:13:33;99767.34;;;7.30;83.78
8320;BME280;4197;42.130;24.746;2023-04-08T01:16:05;99771.16;;;7.20;85.48
8320;BME280;4197;42.130;24.746;2023-04-08T01:18:35;99768.91;;;7.31;87.93
8320;BME280;4197;42.130;24.746;2023-04-08T01:21:05;99774.69;;;7.21;88.64
8320;BME280;4197;42.130;24.746;2023-04-08T01:23:39;99775.28;;;7.18;90.13
8320;BME280;4197;42.130;24.746;2023-04-08T01:26:12;99771.47;;;7.27;90.72
8320;BME280;4197;42.130;24.746;2023-04-08T01:28:49;99763.25;;;7.24;91.97
8320;BME280;4197;42.130;24.746;2023-04-08T01:31:20;99763.06;;;7.20;92.39
8320;BME280;4197;42.130;24.746;2023-04-08T01:33:50;99765.47;;;7.22;93.34
8320;BME280;4197;42.130;24.746;2023-04-08T01:36:19;99761.00;;;7.26;94.39
8320;BME280;4197;42.130;24.746;2023-04-08T01:38:48;99770.72;;;7.18;95.32
8320;BME280;4197;42.130;24.746;2023-04-08T01:41:19;99762.00;;;7.12;96.08
8320;BME280;4197;42.130;24.746;2023-04-08T01:43:49;99771.81;;;7.17;97.99
8320;BME280;4197;42.130;24.746;2023-04-08T01:46:18;99772.63;;;7.09;99.11
8320;BME280;4197;42.130;24.746;2023-04-08T01:48:48;99769.75;;;7.14;99.89
8320;BME280;4197;42.130;24.746;2023-04-08T01:51:18;99779.16;;;7.08;100.00
8320;BME280;4197;42.130;24.746;2023-04-08T01:53:47;99774.56;;;7.00;100.00
8320;BME280;4197;42.130;24.746;2023-04-08T01:56:15;99774.44;;;6.96;100.00
8320;BME280;4197;42.130;24.746;2023-04-08T01:58:49;99784.25;;;6.92;100.00
8320;BME280;4197;42.130;24.746;2023-04-08T02:01:20;99783.44;;;7.00;100.00
8320;BME280;4197;42.130;24.746;2023-04-08T02:03:50;99785.34;;;7.00;100.00
8320;BME280;4197;42.130;24.746;2023-04-08T02:06:22;99793.41;;;7.08;100.00
8320;BME280;4197;42.130;24.746;2023-04-08T02:08:52;99788.97;;;7.12;100.00
8320;BME280;4197;42.130;24.746;2023-04-08T02:11:20;99788.38;;;7.07;100.00
8320;BME280;4197;42.130;24.746;2023-04-08T02:13:51;99780.59;;;6.97;100.00
8320;BME280;4197;42.130;24.746;2023-04-08T02:16:22;99788.06;;;6.91;100.00
8320;BME280;4197;42.130;24.746;2023-04-08T02:18:55;99786.47;;;6.99;100.00
8320;BME280;4197;42.130;24.746;2023-04-08T02:21:29;99790.78;;;6.82;100.00
8320;BME280;4197;42.130;24.746;2023-04-08T02:24:02;99795.06;;;6.75;100.00
8320;BME280;4197;42.130;24.746;2023-04-08T02:26:32;99807.44;;;6.76;100.00
8320;BME280;4197;42.130;24.746;2023-04-08T02:29:04;99797.94;;;6.69;100.00
8320;BME280;4197;42.130;24.746;2023-04-08T02:31:33;99797.63;;;6.71;100.00
8320;BME280;4197;42.130;24.746;2023-04-08T02:34:03;99793.50;;;6.74;100.00
8320;BME280;4197;42.130;24.746;2023-04-08T02:36:33;99800.78;;;6.73;100.00
8320;BME280;4197;42.130;24.746;2023-04-08T02:39:02;99796.66;;;6.76;100.00
8320;BME280;4197;42.130;24.746;2023-04-08T02:41:30;99795.09;;;6.66;100.00
8320;BME280;4197;42.130;24.746;2023-04-08T02:43:58;99795.09;;;6.57;100.00
8320;BME280;4197;42.130;24.746;2023-04-08T02:46:27;99793.06;;;6.54;100.00
8320;BME280;4197;42.130;24.746;2023-04-08T02:48:56;99793.34;;;6.61;100.00
8320;BME280;4197;42.130;24.746;2023-04-08T02:51:24;99788.09;;;6.65;100.00
8320;BME280;4197;42.130;24.746;2023-04-08T02:53:53;99795.25;;;6.61;100.00
8320;BME280;4197;42.130;24.746;2023-04-08T02:56:21;99802.72;;;6.46;100.00
8320;BME280;4197;42.130;24.746;2023-04-08T02:58:50;99803.50;;;6.47;100.00
8320;BME280;4197;42.130;24.746;2023-04-08T03:01:18;99801.59;;;6.47;100.00
8320;BME280;4197;42.130;24.746;2023-04-08T03:03:47;99808.41;;;6.36;100.00
8320;BME280;4197;42.130;24.746;2023-04-08T03:06:16;99811.09;;;6.45;100.00
8320;BME280;4197;42.130;24.746;2023-04-08T03:08:44;99817.13;;;6.42;100.00
8320;BME280;4197;42.130;24.746;2023-04-08T03:11:13;99826.47;;;6.53;100.00
8320;BME280;4197;42.130;24.746;2023-04-08T03:13:41;99823.00;;;6.61;100.00
8320;BME280;4197;42.130;24.746;2023-04-08T03:16:10;99816.34;;;6.50;100.00
8320;BME280;4197;42.130;24.746;2023-04-08T03:18:38;99813.94;;;6.40;100.00
8320;BME280;4197;42.130;24.746;2023-04-08T03:21:08;99816.50;;;6.28;100.00
8320;BME280;4197;42.130;24.746;2023-04-08T03:23:36;99828.06;;;6.37;100.00
8320;BME280;4197;42.130;24.746;2023-04-08T03:26:04;99827.41;;;6.40;100.00
8320;BME280;4197;42.130;24.746;2023-04-08T03:28:32;99821.72;;;6.33;100.00
8320;BME280;4197;42.130;24.746;2023-04-08T03:31:02;99820.13;;;6.32;100.00
8320;BME280;4197;42.130;24.746;2023-04-08T03:33:30;99817.28;;;6.19;100.00
8320;BME280;4197;42.130;24.746;2023-04-08T03:35:58;99823.44;;;6.20;100.00
8320;BME280;4197;42.130;24.746;2023-04-08T03:38:28;99823.59;;;6.23;100.00
8320;BME280;4197;42.130;24.746;2023-04-08T03:40:56;99824.09;;;6.34;100.00
8320;BME280;4197;42.130;24.746;2023-04-08T03:43:25;99821.88;;;6.36;100.00
8320;BME280;4197;42.130;24.746;2023-04-08T03:45:54;99820.16;;;6.40;100.00
8320;BME280;4197;42.130;24.746;2023-04-08T03:48:22;99818.53;;;6.48;100.00
8320;BME280;4197;42.130;24.746;2023-04-08T03:50:50;99828.69;;;6.51;100.00
8320;BME280;4197;42.130;24.746;2023-04-08T03:53:19;99823.00;;;6.53;100.00
8320;BME280;4197;42.130;24.746;2023-04-08T03:55:49;99833.63;;;6.58;100.00
8320;BME280;4197;42.130;24.746;2023-04-08T03:58:17;99833.47;;;6.54;100.00
8320;BME280;4197;42.130;24.746;2023-04-08T04:00:47;99835.69;;;6.52;100.00
8320;BME280;4197;42.130;24.746;2023-04-08T04:03:15;99828.69;;;6.51;100.00
8320;BME280;4197;42.130;24.746;2023-04-08T04:05:44;99834.25;;;6.55;100.00
8320;BME280;4197;42.130;24.746;2023-04-08T04:08:12;99834.25;;;6.55;100.00
8320;BME280;4197;42.130;24.746;2023-04-08T04:10:40;99840.44;;;6.55;100.00
8320;BME280;4197;42.130;24.746;2023-04-08T04:13:10;99838.38;;;6.43;100.00
8320;BME280;4197;42.130;24.746;2023-04-08T04:15:38;99835.69;;;6.52;100.00
8320;BME280;4197;42.130;24.746;2023-04-08T04:18:06;99845.34;;;6.53;100.00
8320;BME280;4197;42.130;24.746;2023-04-08T04:20:38;99847.25;;;6.53;100.00
8320;BME280;4197;42.130;24.746;2023-04-08T04:23:06;99839.47;;;6.51;100.00
8320;BME280;4197;42.130;24.746;2023-04-08T04:25:35;99846.47;;;6.43;100.00
8320;BME280;4197;42.130;24.746;2023-04-08T04:28:05;99846.59;;;6.30;100.00
8320;BME280;4197;42.130;24.746;2023-04-08T04:30:36;99848.16;;;6.22;100.00
8320;BME280;4197;42.130;24.746;2023-04-08T04:33:05;99842.94;;;6.17;100.00
8320;BME280;4197;42.130;24.746;2023-04-08T04:35:33;99851.16;;;6.20;100.00
8320;BME280;4197;42.130;24.746;2023-04-08T04:38:01;99842.75;;;6.05;100.00
8320;BME280;4197;42.130;24.746;2023-04-08T04:40:32;99852.25;;;6.11;100.00
8320;BME280;4197;42.130;24.746;2023-04-08T04:43:00;99842.78;;;6.22;100.00
8320;BME280;4197;42.130;24.746;2023-04-08T04:45:28;99843.91;;;6.21;100.00
8320;BME280;4197;42.130;24.746;2023-04-08T04:47:58;99844.84;;;6.34;100.00
8320;BME280;4197;42.130;24.746;2023-04-08T04:50:26;99849.44;;;6.51;100.00
8320;BME280;4197;42.130;24.746;2023-04-08T04:52:54;99855.63;;;6.34;100.00
8320;BME280;4197;42.130;24.746;2023-04-08T04:55:22;99847.25;;;6.35;100.00
8320;BME280;4197;42.130;24.746;2023-04-08T04:57:53;99847.88;;;6.50;100.00
8320;BME280;4197;42.130;24.746;2023-04-08T05:00:21;99856.75;;;6.50;100.00
8320;BME280;4197;42.130;24.746;2023-04-08T05:02:49;99858.47;;;6.37;100.00
8320;BME280;4197;42.130;24.746;2023-04-08T05:05:19;99858.00;;;6.35;100.00
8320;BME280;4197;42.130;24.746;2023-04-08T05:07:48;99856.09;;;6.36;100.00
8320;BME280;4197;42.130;24.746;2023-04-08T05:10:16;99855.47;;;6.39;100.00
8320;BME280;4197;42.130;24.746;2023-04-08T05:12:44;99858.81;;;6.36;100.00
8320;BME280;4197;42.130;24.746;2023-04-08T05:15:12;99864.19;;;6.36;100.00
8320;BME280;4197;42.130;24.746;2023-04-08T05:17:41;99869.09;;;6.51;100.00
8320;BME280;4197;42.130;24.746;2023-04-08T05:20:10;99870.88;;;6.82;100.00
8320;BME280;4197;42.130;24.746;2023-04-08T05:22:44;99874.47;;;7.12;100.00
8320;BME280;4197;42.130;24.746;2023-04-08T05:25:12;99879.66;;;7.26;100.00
8320;BME280;4197;42.130;24.746;2023-04-08T05:27:41;99878.84;;;7.43;100.00
8320;BME280;4197;42.130;24.746;2023-04-08T05:30:10;99877.00;;;7.17;100.00
8320;BME280;4197;42.130;24.746;2023-04-08T05:32:38;99882.84;;;7.28;100.00
8320;BME280;4197;42.130;24.746;2023-04-08T05:35:07;99876.31;;;7.46;100.00
8320;BME280;4197;42.130;24.746;2023-04-08T05:37:36;99881.97;;;7.62;100.00
8320;BME280;4197;42.130;24.746;2023-04-08T05:40:07;99880.16;;;7.75;100.00
8320;BME280;4197;42.130;24.746;2023-04-08T05:42:35;99885.03;;;7.90;100.00
8320;BME280;4197;42.130;24.746;2023-04-08T05:45:04;99879.28;;;7.92;100.00
8320;BME280;4197;42.130;24.746;2023-04-08T05:47:32;99886.44;;;7.96;100.00
8320;BME280;4197;42.130;24.746;2023-04-08T05:50:01;99882.59;;;7.97;100.00
8320;BME280;4197;42.130;24.746;2023-04-08T05:52:29;99891.59;;;8.10;100.00
8320;BME280;4197;42.130;24.746;2023-04-08T05:54:57;99891.34;;;7.94;100.00
8320;BME280;4197;42.130;24.746;2023-04-08T05:57:26;99893.56;;;8.01;100.00
8320;BME280;4197;42.130;24.746;2023-04-08T05:59:55;99884.41;;;8.14;100.00
8320;BME280;4197;42.130;24.746;2023-04-08T06:02:23;99885.59;;;8.34;100.00
8320;BME280;4197;42.130;24.746;2023-04-08T06:04:51;99881.66;;;8.53;100.00
8320;BME280;4197;42.130;24.746;2023-04-08T06:07:20;99886.03;;;8.66;100.00
8320;BME280;4197;42.130;24.746;2023-04-08T06:09:48;99886.94;;;8.70;100.00
8320;BME280;4197;42.130;24.746;2023-04-08T06:12:16;99886.81;;;8.45;100.00
8320;BME280;4197;42.130;24.746;2023-04-08T06:14:46;99888.09;;;8.39;100.00
8320;BME280;4197;42.130;24.746;2023-04-08T06:17:14;99884.88;;;8.67;100.00
8320;BME280;4197;42.130;24.746;2023-04-08T06:19:42;99891.00;;;8.97;100.00
8320;BME280;4197;42.130;24.746;2023-04-08T06:22:10;99885.00;;;8.91;100.00
8320;BME280;4197;42.130;24.746;2023-04-08T06:24:38;99887.66;;;8.79;100.00
8320;BME280;4197;42.130;24.746;2023-04-08T06:27:06;99890.50;;;8.83;100.00
8320;BME280;4197;42.130;24.746;2023-04-08T06:29:35;99898.06;;;8.47;100.00
8320;BME280;4197;42.130;24.746;2023-04-08T06:32:05;99891.44;;;8.66;100.00
8320;BME280;4197;42.130;24.746;2023-04-08T06:34:33;99886.03;;;8.87;100.00
8320;BME280;4197;42.130;24.746;2023-04-08T06:37:02;99889.75;;;8.94;100.00
8320;BME280;4197;42.130;24.746;2023-04-08T06:39:30;99894.78;;;9.17;100.00
8320;BME280;4197;42.130;24.746;2023-04-08T06:41:58;99891.88;;;9.22;100.00
8320;BME280;4197;42.130;24.746;2023-04-08T06:44:27;99888.56;;;9.37;100.00
8320;BME280;4197;42.130;24.746;2023-04-08T06:46:57;99889.56;;;9.00;100.00
8320;BME280;4197;42.130;24.746;2023-04-08T06:49:26;99890.88;;;8.93;100.00
8320;BME280;4197;42.130;24.746;2023-04-08T06:51:56;99893.84;;;9.34;100.00
8320;BME280;4197;42.130;24.746;2023-04-08T06:54:24;99886.78;;;9.66;100.00
8320;BME280;4197;42.130;24.746;2023-04-08T06:56:52;99889.41;;;9.75;100.00
8320;BME280;4197;42.130;24.746;2023-04-08T06:59:21;99894.03;;;9.62;100.00
8320;BME280;4197;42.130;24.746;2023-04-08T07:01:49;99890.34;;;9.33;100.00
8320;BME280;4197;42.130;24.746;2023-04-08T07:04:17;99887.00;;;9.49;100.00
8320;BME280;4197;42.130;24.746;2023-04-08T07:06:48;99889.56;;;9.33;100.00
8320;BME280;4197;42.130;24.746;2023-04-08T07:09:17;99891.41;;;9.53;100.00
8320;BME280;4197;42.130;24.746;2023-04-08T07:11:45;99885.53;;;9.51;100.00
8320;BME280;4197;42.130;24.746;2023-04-08T07:14:13;99887.41;;;9.38;100.00
8320;BME280;4197;42.130;24.746;2023-04-08T07:16:41;99890.22;;;9.88;100.00
8320;BME280;4197;42.130;24.746;2023-04-08T07:19:10;99886.13;;;10.31;100.00
8320;BME280;4197;42.130;24.746;2023-04-08T07:21:38;99892.91;;;10.24;100.00
8320;BME280;4197;42.130;24.746;2023-04-08T07:24:08;99891.06;;;10.65;100.00
8320;BME280;4197;42.130;24.746;2023-04-08T07:26:37;99892.16;;;10.77;100.00
8320;BME280;4197;42.130;24.746;2023-04-08T07:29:05;99895.16;;;10.22;100.00
8320;BME280;4197;42.130;24.746;2023-04-08T07:31:33;99905.97;;;9.61;100.00
8320;BME280;4197;42.130;24.746;2023-04-08T07:34:01;99904.56;;;10.00;100.00
8320;BME280;4197;42.130;24.746;2023-04-08T07:36:30;99894.28;;;10.31;100.00
8320;BME280;4197;42.130;24.746;2023-04-08T07:38:58;99891.09;;;10.53;100.00
8320;BME280;4197;42.130;24.746;2023-04-08T07:41:28;99891.78;;;10.38;100.00
8320;BME280;4197;42.130;24.746;2023-04-08T07:43:56;99882.00;;;10.61;100.00
8320;BME280;4197;42.130;24.746;2023-04-08T07:46:24;99880.41;;;10.73;100.00
8320;BME280;4197;42.130;24.746;2023-04-08T07:48:52;99884.53;;;10.42;100.00
8320;BME280;4197;42.130;24.746;2023-04-08T07:51:21;99882.84;;;10.49;100.00
8320;BME280;4197;42.130;24.746;2023-04-08T07:53:49;99885.31;;;10.95;100.00
8320;BME280;4197;42.130;24.746;2023-04-08T07:56:17;99882.34;;;11.00;100.00
8320;BME280;4197;42.130;24.746;2023-04-08T07:58:47;99889.66;;;11.28;100.00
8320;BME280;4197;42.130;24.746;2023-04-08T08:01:21;99889.50;;;11.21;100.00
8320;BME280;4197;42.130;24.746;2023-04-08T08:03:50;99888.66;;;10.76;100.00
8320;BME280;4197;42.130;24.746;2023-04-08T08:06:19;99889.13;;;10.66;100.00
8320;BME280;4197;42.130;24.746;2023-04-08T08:08:48;99892.13;;;10.48;100.00
8320;BME280;4197;42.130;24.746;2023-04-08T08:11:16;99897.50;;;11.01;100.00
8320;BME280;4197;42.130;24.746;2023-04-08T08:13:44;99892.06;;;11.61;100.00
8320;BME280;4197;42.130;24.746;2023-04-08T08:16:14;99896.38;;;11.62;100.00
8320;BME280;4197;42.130;24.746;2023-04-08T08:18:42;99895.41;;;11.54;100.00
8320;BME280;4197;42.130;24.746;2023-04-08T08:21:10;99895.88;;;11.88;100.00
8320;BME280;4197;42.130;24.746;2023-04-08T08:23:38;99898.59;;;12.20;100.00
8320;BME280;4197;42.130;24.746;2023-04-08T08:26:08;99893.09;;;12.00;100.00
8320;BME280;4197;42.130;24.746;2023-04-08T08:28:39;99886.03;;;11.68;100.00
8320;BME280;4197;42.130;24.746;2023-04-08T08:31:08;99890.97;;;11.78;100.00
8320;BME280;4197;42.130;24.746;2023-04-08T08:33:37;99887.66;;;12.00;100.00
8320;BME280;4197;42.130;24.746;2023-04-08T08:36:05;99897.63;;;11.65;100.00
8320;BME280;4197;42.130;24.746;2023-04-08T08:38:34;99884.66;;;12.05;100.00
8320;BME280;4197;42.130;24.746;2023-04-08T08:41:02;99880.09;;;11.94;100.00
8320;BME280;4197;42.130;24.746;2023-04-08T08:43:31;99881.69;;;12.30;100.00
8320;BME280;4197;42.130;24.746;2023-04-08T08:46:00;99883.28;;;12.31;100.00
8320;BME280;4197;42.130;24.746;2023-04-08T08:48:30;99878.75;;;12.55;89.83
8320;BME280;4197;42.130;24.746;2023-04-08T08:51:01;99882.53;;;12.15;89.16
8320;BME280;4197;42.130;24.746;2023-04-08T08:53:35;99878.44;;;12.40;87.47
8320;BME280;4197;42.130;24.746;2023-04-08T08:56:04;99879.56;;;12.04;89.95
8320;BME280;4197;42.130;24.746;2023-04-08T08:58:44;99876.78;;;12.36;88.68
8320;BME280;4197;42.130;24.746;2023-04-08T09:01:32;99872.69;;;12.26;88.92
8320;BME280;4197;42.130;24.746;2023-04-08T09:04:20;99882.69;;;12.57;87.75
8320;BME280;4197;42.130;24.746;2023-04-08T09:07:07;99877.69;;;12.79;89.37
8320;BME280;4197;42.130;24.746;2023-04-08T09:09:47;99877.59;;;12.36;89.67
8320;BME280;4197;42.130;24.746;2023-04-08T09:12:17;99872.75;;;12.30;91.02
8320;BME280;4197;42.130;24.746;2023-04-08T09:14:46;99871.31;;;12.71;87.93
8320;BME280;4197;42.130;24.746;2023-04-08T09:17:14;99881.91;;;13.15;82.22
8320;BME280;4197;42.130;24.746;2023-04-08T09:20:04;99878.38;;;13.34;76.13
8320;BME280;4197;42.130;24.746;2023-04-08T09:22:54;99873.31;;;13.55;77.56
8320;BME280;4197;42.130;24.746;2023-04-08T09:25:24;99873.13;;;13.68;69.75
8320;BME280;4197;42.130;24.746;2023-04-08T09:27:53;99872.88;;;13.76;70.20
8320;BME280;4197;42.130;24.746;2023-04-08T09:30:23;99874.53;;;14.07;68.60
8320;BME280;4197;42.130;24.746;2023-04-08T09:32:55;99874.16;;;14.36;66.28
8320;BME280;4197;42.130;24.746;2023-04-08T09:35:23;99875.22;;;14.54;65.18
8320;BME280;4197;42.130;24.746;2023-04-08T09:37:53;99872.22;;;14.36;64.86
8320;BME280;4197;42.130;24.746;2023-04-08T09:40:23;99873.63;;;14.26;64.57
8320;BME280;4197;42.130;24.746;2023-04-08T09:42:56;99871.28;;;13.98;64.73
8320;BME280;4197;42.130;24.746;2023-04-08T09:45:25;99881.31;;;13.45;64.93
8320;BME280;4197;42.130;24.746;2023-04-08T09:47:56;99870.66;;;13.16;64.79
8320;BME280;4197;42.130;24.746;2023-04-08T09:50:31;99870.25;;;12.95;65.50
8320;BME280;4197;42.130;24.746;2023-04-08T09:53:09;99872.03;;;12.87;66.66
8320;BME280;4197;42.130;24.746;2023-04-08T09:55:43;99874.91;;;12.75;66.64
8320;BME280;4197;42.130;24.746;2023-04-08T09:58:15;99876.25;;;13.04;66.41
8320;BME280;4197;42.130;24.746;2023-04-08T10:00:48;99879.25;;;12.80;65.46
8320;BME280;4197;42.130;24.746;2023-04-08T10:03:26;99873.47;;;13.01;65.88
8320;BME280;4197;42.130;24.746;2023-04-08T10:05:57;99878.91;;;13.01;66.43
8320;BME280;4197;42.130;24.746;2023-04-08T10:08:29;99877.88;;;12.50;69.49
8320;BME280;4197;42.130;24.746;2023-04-08T10:10:58;99872.03;;;12.68;69.15
8320;BME280;4197;42.130;24.746;2023-04-08T10:13:27;99870.19;;;12.91;69.13
8320;BME280;4197;42.130;24.746;2023-04-08T10:16:19;99863.00;;;13.03;69.45
8320;BME280;4197;42.130;24.746;2023-04-08T10:18:50;99856.66;;;13.37;68.83
8320;BME280;4197;42.130;24.746;2023-04-08T10:21:34;99860.47;;;13.79;69.11
8320;BME280;4197;42.130;24.746;2023-04-08T10:24:08;99864.19;;;13.44;68.26
8320;BME280;4197;42.130;24.746;2023-04-08T10:29:43;99853.09;;;13.33;67.87
8320;BME280;4197;42.130;24.746;2023-04-08T10:32:28;99847.09;;;13.47;67.86
8320;BME280;4197;42.130;24.746;2023-04-08T10:34:56;99850.59;;;13.48;67.21
8320;BME280;4197;42.130;24.746;2023-04-08T10:37:25;99849.50;;;13.29;67.17
8320;BME280;4197;42.130;24.746;2023-04-08T10:39:56;99846.97;;;13.40;67.30
8320;BME280;4197;42.130;24.746;2023-04-08T10:42:27;99838.56;;;13.26;67.81
8320;BME280;4197;42.130;24.746;2023-04-08T10:45:00;99841.53;;;13.90;67.29
8320;BME280;4197;42.130;24.746;2023-04-08T10:47:29;99828.75;;;13.67;65.49
8320;BME280;4197;42.130;24.746;2023-04-08T10:49:58;99834.78;;;13.57;66.12
8320;BME280;4197;42.130;24.746;2023-04-08T10:52:27;99830.13;;;13.80;66.43
8320;BME280;4197;42.130;24.746;2023-04-08T10:54:56;99825.97;;;14.17;64.53
8320;BME280;4197;42.130;24.746;2023-04-08T10:57:24;99821.72;;;14.19;63.42
8320;BME280;4197;42.130;24.746;2023-04-08T10:59:53;99814.03;;;14.28;63.24
8320;BME280;4197;42.130;24.746;2023-04-08T11:02:21;99806.25;;;14.57;62.96
8320;BME280;4197;42.130;24.746;2023-04-08T11:04:53;99815.00;;;14.73;63.13
8320;BME280;4197;42.130;24.746;2023-04-08T11:07:21;99810.75;;;14.76;61.39
8320;BME280;4197;42.130;24.746;2023-04-08T11:09:49;99804.00;;;14.36;62.42
8320;BME280;4197;42.130;24.746;2023-04-08T11:12:19;99813.72;;;14.03;63.33
8320;BME280;4197;42.130;24.746;2023-04-08T11:14:48;99808.22;;;13.27;64.96
8320;BME280;4197;42.130;24.746;2023-04-08T11:17:18;99801.03;;;13.38;66.30
8320;BME280;4197;42.130;24.746;2023-04-08T11:19:47;99800.88;;;13.77;64.78
8320;BME280;4197;42.130;24.746;2023-04-08T11:22:16;99795.44;;;13.77;65.37
8320;BME280;4197;42.130;24.746;2023-04-08T11:24:44;99794.63;;;14.03;64.56
8320;BME280;4197;42.130;24.746;2023-04-08T11:27:12;99788.94;;;14.16;65.06
8320;BME280;4197;42.130;24.746;2023-04-08T11:29:43;99780.16;;;14.29;64.00
8320;BME280;4197;42.130;24.746;2023-04-08T11:32:11;99784.22;;;14.77;63.12
8320;BME280;4197;42.130;24.746;2023-04-08T11:34:40;99777.59;;;15.15;60.39
8320;BME280;4197;42.130;24.746;2023-04-08T11:37:08;99777.97;;;15.13;59.48
8320;BME280;4197;42.130;24.746;2023-04-08T11:39:40;99766.47;;;14.93;60.05
8320;BME280;4197;42.130;24.746;2023-04-08T11:42:25;99762.63;;;14.98;59.59
8320;BME280;4197;42.130;24.746;2023-04-08T11:44:55;99760.19;;;14.89;59.83
8320;BME280;4197;42.130;24.746;2023-04-08T11:47:30;99755.63;;;15.01;60.13
8320;BME280;4197;42.130;24.746;2023-04-08T11:49:59;99761.44;;;14.58;61.52
8320;BME280;4197;42.130;24.746;2023-04-08T11:52:45;99752.66;;;15.16;60.23
8320;BME280;4197;42.130;24.746;2023-04-08T11:55:22;99758.75;;;15.47;59.92
8320;BME280;4197;42.130;24.746;2023-04-08T11:57:50;99750.97;;;15.53;59.23
8320;BME280;4197;42.130;24.746;2023-04-08T12:00:21;99744.03;;;15.66;58.79
8320;BME280;4197;42.130;24.746;2023-04-08T12:02:50;99742.03;;;15.59;57.59
8320;BME280;4197;42.130;24.746;2023-04-08T12:05:19;99741.94;;;15.45;60.01
8320;BME280;4197;42.130;24.746;2023-04-08T12:07:47;99737.34;;;15.60;59.71
8320;BME280;4197;42.130;24.746;2023-04-08T12:10:15;99735.59;;;15.86;58.79
8320;BME280;4197;42.130;24.746;2023-04-08T12:12:44;99743.09;;;16.06;58.31
8320;BME280;4197;42.130;24.746;2023-04-08T12:15:12;99735.38;;;15.57;58.89
8320;BME280;4197;42.130;24.746;2023-04-08T12:17:41;99724.16;;;15.17;60.64
8320;BME280;4197;42.130;24.746;2023-04-08T12:20:10;99723.41;;;15.21;60.76
8320;BME280;4197;42.130;24.746;2023-04-08T12:22:39;99719.72;;;15.54;61.17
8320;BME280;4197;42.130;24.746;2023-04-08T12:25:08;99719.19;;;15.89;59.20
8320;BME280;4197;42.130;24.746;2023-04-08T12:27:36;99708.72;;;16.05;58.75
8320;BME280;4197;42.130;24.746;2023-04-08T12:30:05;99718.53;;;16.14;58.62
8320;BME280;4197;42.130;24.746;2023-04-08T12:32:33;99717.03;;;16.27;58.06
8320;BME280;4197;42.130;24.746;2023-04-08T12:35:03;99712.28;;;16.20;58.43
8320;BME280;4197;42.130;24.746;2023-04-08T12:37:31;99713.31;;;15.87;58.21
8320;BME280;4197;42.130;24.746;2023-04-08T12:40:00;99700.47;;;15.95;58.77
8320;BME280;4197;42.130;24.746;2023-04-08T12:42:28;99702.94;;;16.25;57.60
8320;BME280;4197;42.130;24.746;2023-04-08T12:44:56;99708.09;;;16.44;57.62
8320;BME280;4197;42.130;24.746;2023-04-08T12:47:25;99702.63;;;16.59;56.06
8320;BME280;4197;42.130;24.746;2023-04-08T12:49:53;99700.31;;;16.71;56.18
8320;BME280;4197;42.130;24.746;2023-04-08T12:52:22;99697.22;;;16.80;56.21
8320;BME280;4197;42.130;24.746;2023-04-08T12:54:51;99691.38;;;16.96;55.46
8320;BME280;4197;42.130;24.746;2023-04-08T12:57:19;99694.91;;;17.07;55.03
8320;BME280;4197;42.130;24.746;2023-04-08T12:59:47;99684.31;;;17.06;54.83
8320;BME280;4197;42.130;24.746;2023-04-08T13:02:15;99693.31;;;16.95;55.09
8320;BME280;4197;42.130;24.746;2023-04-08T13:04:43;99688.53;;;16.53;55.12
8320;BME280;4197;42.130;24.746;2023-04-08T13:07:11;99692.84;;;16.47;55.68
8320;BME280;4197;42.130;24.746;2023-04-08T13:09:41;99684.63;;;16.47;56.61
8320;BME280;4197;42.130;24.746;2023-04-08T13:12:11;99677.19;;;16.51;57.01
8320;BME280;4197;42.130;24.746;2023-04-08T13:14:40;99675.69;;;16.71;56.64
8320;BME280;4197;42.130;24.746;2023-04-08T13:17:08;99674.47;;;16.62;56.18
8320;BME280;4197;42.130;24.746;2023-04-08T13:19:36;99671.75;;;16.65;56.92
8320;BME280;4197;42.130;24.746;2023-04-08T13:22:05;99673.75;;;16.79;56.39
8320;BME280;4197;42.130;24.746;2023-04-08T13:24:33;99671.41;;;16.88;55.16
8320;BME280;4197;42.130;24.746;2023-04-08T13:27:02;99663.53;;;16.55;56.30
8320;BME280;4197;42.130;24.746;2023-04-08T13:29:30;99656.50;;;16.64;56.34